createdAt,value
2022-12-25T00:02:01.941Z,6.87
2022-12-25T00:04:28.840Z,6.96
2022-12-25T00:06:56.022Z,6.97
2022-12-25T00:09:22.718Z,6.81
2022-12-25T00:11:49.340Z,6.75
2022-12-25T00:14:16.155Z,6.88
2022-12-25T00:16:42.815Z,6.94
2022-12-25T00:19:09.517Z,6.88
2022-12-25T00:21:36.811Z,6.82
2022-12-25T00:24:03.690Z,6.81
2022-12-25T00:26:30.352Z,6.71
2022-12-25T00:28:57.606Z,6.57
2022-12-25T00:31:25.721Z,6.38
2022-12-25T00:33:52.967Z,6.18
2022-12-25T00:36:22.334Z,5.99
2022-12-25T00:38:49.281Z,6.03
2022-12-25T00:41:38.758Z,5.97
2022-12-25T00:44:06.461Z,5.56
2022-12-25T00:46:33.222Z,5.62
2022-12-25T00:49:00.580Z,5.86
2022-12-25T00:51:27.247Z,5.51
2022-12-25T00:53:53.916Z,5.26
2022-12-25T00:56:20.561Z,5.60
2022-12-25T00:58:47.737Z,5.86
2022-12-25T01:01:14.623Z,5.75
2022-12-25T01:03:42.123Z,5.48
2022-12-25T01:06:10.923Z,5.60
2022-12-25T01:08:59.725Z,5.68
2022-12-25T01:11:26.654Z,5.38
2022-12-25T01:13:53.316Z,5.53
2022-12-25T01:16:19.894Z,5.41
2022-12-25T01:18:46.721Z,5.22
2022-12-25T01:21:18.383Z,5.33
2022-12-25T01:23:45.095Z,5.35
2022-12-25T01:26:12.458Z,5.53
2022-12-25T01:28:39.778Z,5.59
2022-12-25T01:31:10.647Z,5.53
2022-12-25T01:33:38.474Z,5.54
2022-12-25T01:36:15.901Z,5.25
2022-12-25T01:38:43.742Z,5.15
2022-12-25T01:41:11.859Z,5.13
2022-12-25T01:43:56.240Z,4.99
2022-12-25T01:46:22.889Z,5.00
2022-12-25T01:48:49.960Z,5.01
2022-12-25T01:51:29.125Z,5.23
2022-12-25T01:53:59.556Z,5.39
2022-12-25T01:56:29.029Z,5.33
2022-12-25T01:58:57.665Z,5.35
2022-12-25T02:01:24.392Z,5.54
2022-12-25T02:03:57.055Z,5.15
2022-12-25T02:06:23.649Z,5.24
2022-12-25T02:08:51.645Z,5.21
2022-12-25T02:11:37.317Z,5.04
2022-12-25T02:14:03.979Z,5.01
2022-12-25T02:16:35.556Z,5.36
2022-12-25T02:19:25.195Z,5.44
2022-12-25T02:22:06.908Z,5.40
2022-12-25T02:24:50.635Z,5.18
2022-12-25T02:27:27.705Z,5.52
2022-12-25T02:30:03.794Z,5.28
2022-12-25T02:32:52.364Z,5.18
2022-12-25T02:35:28.390Z,5.24
2022-12-25T02:38:16.692Z,5.18
2022-12-25T02:40:51.347Z,4.99
2022-12-25T02:43:46.565Z,4.88
2022-12-25T02:46:35.248Z,5.08
2022-12-25T02:49:41.583Z,5.56
2022-12-25T02:52:41.202Z,5.75
2022-12-25T02:55:35.983Z,5.69
2022-12-25T02:58:27.276Z,5.92
2022-12-25T03:01:18.398Z,6.01
2022-12-25T03:04:05.487Z,6.08
2022-12-25T03:06:46.739Z,6.18
2022-12-25T03:09:42.758Z,5.66
2022-12-25T03:12:15.716Z,5.32
2022-12-25T03:15:01.315Z,5.49
2022-12-25T03:17:28.102Z,5.65
2022-12-25T03:20:13.249Z,5.51
2022-12-25T03:23:02.735Z,5.37
2022-12-25T03:25:48.103Z,5.62
2022-12-25T03:28:15.024Z,5.68
2022-12-25T03:31:06.826Z,5.31
2022-12-25T03:34:10.701Z,5.04
2022-12-25T03:36:40.977Z,5.32
2022-12-25T03:39:42.120Z,5.16
2022-12-25T03:42:37.477Z,5.30
2022-12-25T03:45:41.278Z,5.33
2022-12-25T03:48:28.764Z,5.55
2022-12-25T03:51:22.436Z,5.94
2022-12-25T03:54:13.594Z,5.80
2022-12-25T03:57:00.362Z,5.55
2022-12-25T03:59:45.737Z,5.41
2022-12-25T04:02:31.250Z,5.52
2022-12-25T04:05:16.416Z,5.58
2022-12-25T04:08:02.272Z,5.51
2022-12-25T04:10:47.683Z,5.86
2022-12-25T04:13:34.564Z,5.68
2022-12-25T04:16:20.145Z,5.75
2022-12-25T04:19:05.524Z,5.60
2022-12-25T04:21:50.895Z,5.90
2022-12-25T04:24:36.476Z,5.79
2022-12-25T04:27:21.561Z,5.49
2022-12-25T04:30:06.905Z,5.36
2022-12-25T04:32:52.175Z,5.25
2022-12-25T04:35:37.611Z,5.16
2022-12-25T04:38:04.236Z,5.27
2022-12-25T04:40:30.822Z,5.44
2022-12-25T04:42:57.430Z,5.68
2022-12-25T04:45:24.051Z,5.80
2022-12-25T04:47:50.773Z,5.76
2022-12-25T04:50:17.303Z,5.85
2022-12-25T04:52:43.953Z,6.33
2022-12-25T04:55:11.397Z,6.10
2022-12-25T04:57:38.382Z,6.07
2022-12-25T05:00:07.402Z,6.27
2022-12-25T05:02:34.675Z,6.45
2022-12-25T05:05:01.510Z,6.71
2022-12-25T05:07:28.242Z,6.59
2022-12-25T05:09:54.928Z,6.46
2022-12-25T05:12:21.474Z,6.60
2022-12-25T05:14:48.163Z,6.43
2022-12-25T05:17:14.661Z,6.46
2022-12-25T05:19:41.340Z,6.54
2022-12-25T05:22:07.827Z,6.54
2022-12-25T05:24:34.586Z,6.43
2022-12-25T05:27:01.214Z,6.45
2022-12-25T05:29:28.022Z,6.37
2022-12-25T05:31:54.717Z,6.30
2022-12-25T05:34:21.469Z,6.01
2022-12-25T05:36:48.076Z,5.78
2022-12-25T05:39:14.827Z,5.54
2022-12-25T05:41:41.356Z,5.31
2022-12-25T05:44:07.976Z,5.63
2022-12-25T05:46:34.830Z,5.85
2022-12-25T05:49:01.460Z,6.10
2022-12-25T05:51:28.073Z,5.73
2022-12-25T05:53:54.698Z,5.47
2022-12-25T05:56:21.246Z,5.31
2022-12-25T05:58:48.330Z,5.54
2022-12-25T06:01:19.291Z,5.54
2022-12-25T06:03:46.624Z,5.28
2022-12-25T06:06:13.962Z,5.17
2022-12-25T06:08:41.342Z,4.93
2022-12-25T06:11:14.575Z,4.71
2022-12-25T06:13:41.757Z,4.91
2022-12-25T06:16:11.512Z,5.10
2022-12-25T06:18:41.693Z,5.04
2022-12-25T06:21:10.143Z,5.15
2022-12-25T06:23:38.391Z,5.13
2022-12-25T06:26:10.415Z,5.22
2022-12-25T06:28:37.377Z,5.41
2022-12-25T06:31:09.441Z,5.55
2022-12-25T06:33:36.895Z,5.62
2022-12-25T06:36:11.935Z,5.67
2022-12-25T06:38:38.923Z,5.78
2022-12-25T06:41:11.566Z,5.55
2022-12-25T06:43:38.726Z,5.67
2022-12-25T06:46:10.694Z,5.54
2022-12-25T06:48:39.148Z,5.32
2022-12-25T06:51:06.803Z,5.65
2022-12-25T06:53:40.384Z,5.82
2022-12-25T06:56:10.600Z,5.85
2022-12-25T06:58:37.257Z,6.15
2022-12-25T07:01:15.329Z,6.06
2022-12-25T07:03:44.252Z,5.95
2022-12-25T07:06:11.455Z,5.81
2022-12-25T07:08:38.289Z,6.12
2022-12-25T07:11:05.502Z,5.95
2022-12-25T07:13:32.519Z,6.08
2022-12-25T07:16:01.369Z,6.25
2022-12-25T07:18:29.767Z,6.30
2022-12-25T07:20:56.462Z,6.22
2022-12-25T07:23:23.611Z,6.22
2022-12-25T07:25:54.742Z,6.08
2022-12-25T07:28:21.625Z,6.15
2022-12-25T07:30:48.384Z,5.94
2022-12-25T07:33:15.629Z,6.09
2022-12-25T07:35:42.494Z,5.70
2022-12-25T07:38:09.849Z,5.96
2022-12-25T07:40:36.580Z,6.13
2022-12-25T07:43:03.345Z,6.25
2022-12-25T07:45:30.183Z,6.59
2022-12-25T07:48:05.855Z,6.61
2022-12-25T07:50:34.660Z,6.92
2022-12-25T07:53:01.491Z,6.95
2022-12-25T07:55:28.307Z,7.04
2022-12-25T07:57:55.284Z,6.79
2022-12-25T08:00:22.265Z,6.57
2022-12-25T08:02:50.203Z,6.32
2022-12-25T08:05:17.206Z,6.40
2022-12-25T08:07:43.861Z,6.43
2022-12-25T08:10:10.954Z,6.77
2022-12-25T08:12:37.739Z,6.42
2022-12-25T08:15:04.817Z,6.33
2022-12-25T08:17:31.439Z,6.64
2022-12-25T08:19:57.973Z,7.08
2022-12-25T08:22:25.117Z,7.03
2022-12-25T08:24:51.751Z,6.86
2022-12-25T08:27:18.297Z,7.27
2022-12-25T08:29:45.105Z,7.27
2022-12-25T08:32:11.789Z,7.03
2022-12-25T08:34:38.962Z,6.73
2022-12-25T08:37:05.974Z,6.54
2022-12-25T08:39:32.654Z,6.87
2022-12-25T08:41:59.303Z,6.79
2022-12-25T08:44:25.874Z,6.60
2022-12-25T08:46:53.286Z,6.35
2022-12-25T08:49:19.969Z,6.59
2022-12-25T08:51:46.939Z,6.94
2022-12-25T08:54:13.673Z,6.93
2022-12-25T08:56:40.250Z,6.98
2022-12-25T08:59:06.940Z,7.22
2022-12-25T09:01:33.828Z,7.32
2022-12-25T09:04:00.566Z,7.41
2022-12-25T09:06:27.126Z,7.04
2022-12-25T09:08:53.844Z,7.55
2022-12-25T09:11:21.176Z,7.57
2022-12-25T09:13:48.633Z,7.79
2022-12-25T09:16:18.432Z,8.00
2022-12-25T09:18:45.117Z,7.89
2022-12-25T09:21:14.985Z,7.72
2022-12-25T09:23:42.651Z,7.68
2022-12-25T09:26:13.512Z,7.44
2022-12-25T09:28:43.719Z,7.93
2022-12-25T09:31:13.504Z,7.91
2022-12-25T09:33:40.480Z,7.96
2022-12-25T09:36:08.619Z,8.13
2022-12-25T09:38:36.059Z,8.50
2022-12-25T09:41:50.521Z,8.34
2022-12-25T09:44:23.127Z,8.49
2022-12-25T09:46:56.050Z,8.43
2022-12-25T09:49:35.675Z,8.34
2022-12-25T09:52:19.845Z,8.56
2022-12-25T09:55:20.584Z,8.82
2022-12-25T09:57:54.514Z,8.66
2022-12-25T10:00:23.618Z,9.05
2022-12-25T10:03:12.421Z,8.75
2022-12-25T10:05:57.579Z,9.07
2022-12-25T10:08:52.469Z,9.09
2022-12-25T10:11:40.430Z,9.04
2022-12-25T10:14:07.675Z,8.98
2022-12-25T10:17:12.083Z,9.37
2022-12-25T10:19:58.115Z,9.25
2022-12-25T10:22:47.702Z,9.67
2022-12-25T10:25:21.135Z,9.83
2022-12-25T10:28:03.899Z,10.24
2022-12-25T10:30:31.708Z,9.99
2022-12-25T10:32:58.744Z,10.31
2022-12-25T10:35:29.572Z,10.32
2022-12-25T10:38:11.798Z,10.44
2022-12-25T10:40:53.302Z,10.73
2022-12-25T10:43:28.130Z,10.94
2022-12-25T10:45:54.957Z,11.13
2022-12-25T10:48:33.096Z,11.09
2022-12-25T10:51:00.126Z,11.09
2022-12-25T10:53:29.368Z,11.02
2022-12-25T10:55:58.993Z,10.65
2022-12-25T10:58:26.274Z,11.01
2022-12-25T11:00:57.336Z,11.36
2022-12-25T11:03:29.011Z,11.45
2022-12-25T11:05:56.034Z,11.38
2022-12-25T11:08:25.559Z,10.81
2022-12-25T11:11:07.801Z,10.94
2022-12-25T11:13:47.424Z,10.90
2022-12-25T11:16:25.820Z,10.17
2022-12-25T11:18:54.461Z,9.49
2022-12-25T11:21:33.671Z,9.37
2022-12-25T11:24:00.360Z,9.52
2022-12-25T11:26:29.676Z,9.98
2022-12-25T11:28:56.940Z,10.21
2022-12-25T11:31:39.323Z,10.06
2022-12-25T11:34:14.748Z,10.21
2022-12-25T11:36:50.024Z,10.02
2022-12-25T11:39:23.933Z,10.62
2022-12-25T11:42:13.495Z,10.80
2022-12-25T11:44:51.448Z,10.95
2022-12-25T11:47:35.047Z,10.98
2022-12-25T11:50:07.418Z,10.78
2022-12-25T11:52:38.855Z,11.20
2022-12-25T11:55:16.910Z,10.88
2022-12-25T11:57:47.955Z,10.47
2022-12-25T12:00:16.310Z,10.89
2022-12-25T12:02:53.819Z,10.59
2022-12-25T12:05:29.582Z,11.14
2022-12-25T12:08:02.467Z,11.36
2022-12-25T12:10:34.785Z,11.75
2022-12-25T12:13:13.720Z,12.01
2022-12-25T12:15:50.458Z,11.49
2022-12-25T12:18:29.771Z,11.72
2022-12-25T12:21:05.197Z,12.16
2022-12-25T12:23:36.040Z,12.51
2022-12-25T12:26:04.480Z,13.12
2022-12-25T12:28:44.722Z,12.90
2022-12-25T12:31:12.161Z,12.14
2022-12-25T12:33:44.118Z,11.57
2022-12-25T12:36:14.630Z,11.91
2022-12-25T12:38:43.664Z,11.79
2022-12-25T12:41:12.556Z,11.58
2022-12-25T12:43:42.524Z,12.08
2022-12-25T12:46:31.061Z,12.50
2022-12-25T12:49:20.129Z,12.34
2022-12-25T12:51:46.922Z,12.37
2022-12-25T12:54:24.933Z,12.05
2022-12-25T12:57:04.403Z,11.89
2022-12-25T12:59:44.521Z,11.05
2022-12-25T13:02:36.331Z,11.43
2022-12-25T13:05:14.330Z,12.09
2022-12-25T13:07:59.331Z,11.94
2022-12-25T13:10:34.998Z,12.00
2022-12-25T13:13:06.908Z,10.86
2022-12-25T13:15:35.282Z,10.80
2022-12-25T13:18:06.718Z,10.78
2022-12-25T13:20:46.910Z,11.41
2022-12-25T13:23:23.673Z,11.11
2022-12-25T13:25:55.490Z,10.54
2022-12-25T13:28:30.211Z,10.35
2022-12-25T13:31:05.672Z,9.91
2022-12-25T13:33:33.495Z,9.82
2022-12-25T13:36:00.317Z,9.54
2022-12-25T13:38:28.976Z,9.20
2022-12-25T13:41:15.657Z,9.00
2022-12-25T13:43:44.516Z,9.16
2022-12-25T13:46:14.391Z,8.99
2022-12-25T13:48:42.060Z,9.08
2022-12-25T13:51:16.899Z,9.38
2022-12-25T13:53:44.151Z,9.33
2022-12-25T13:56:16.211Z,9.84
2022-12-25T13:58:44.747Z,10.24
2022-12-25T14:01:16.255Z,10.70
2022-12-25T14:03:46.233Z,10.95
2022-12-25T14:06:20.979Z,11.36
2022-12-25T14:08:48.587Z,11.68
2022-12-25T14:11:18.053Z,11.70
2022-12-25T14:13:47.852Z,11.68
2022-12-25T14:16:18.709Z,11.71
2022-12-25T14:19:00.673Z,11.85
2022-12-25T14:21:32.791Z,11.59
2022-12-25T14:24:00.113Z,11.14
2022-12-25T14:26:32.071Z,11.29
2022-12-25T14:29:04.949Z,11.23
2022-12-25T14:31:32.859Z,11.42
2022-12-25T14:34:03.044Z,10.90
2022-12-25T14:36:31.606Z,11.40
2022-12-25T14:39:00.655Z,11.42
2022-12-25T14:41:39.492Z,11.15
2022-12-25T14:44:26.183Z,11.14
2022-12-25T14:47:23.782Z,11.10
2022-12-25T14:49:51.056Z,10.82
2022-12-25T14:52:31.662Z,10.92
2022-12-25T14:55:04.894Z,10.81
2022-12-25T14:57:38.516Z,10.54
2022-12-25T15:00:18.635Z,9.89
2022-12-25T15:02:47.327Z,9.32
2022-12-25T15:05:28.423Z,9.24
2022-12-25T15:08:13.222Z,8.96
2022-12-25T15:13:28.592Z,9.09
2022-12-25T15:16:12.243Z,9.03
2022-12-25T15:18:42.029Z,9.09
2022-12-25T15:21:30.356Z,9.13
2022-12-25T15:23:59.113Z,9.59
2022-12-25T15:26:27.297Z,9.90
2022-12-25T15:28:53.996Z,9.92
2022-12-25T15:31:31.901Z,10.14
2022-12-25T15:34:01.781Z,10.03
2022-12-25T15:36:29.037Z,10.13
2022-12-25T15:38:56.449Z,10.12
2022-12-25T15:42:03.851Z,10.06
2022-12-25T15:44:30.603Z,9.96
2022-12-25T15:46:58.408Z,9.88
2022-12-25T15:49:25.113Z,10.02
2022-12-25T15:51:51.754Z,9.77
2022-12-25T15:54:18.699Z,9.72
2022-12-25T15:56:58.401Z,9.72
2022-12-25T15:59:25.053Z,9.89
2022-12-25T16:01:54.597Z,9.79
2022-12-25T16:04:22.203Z,9.64
2022-12-25T16:06:49.272Z,9.47
2022-12-25T16:09:16.862Z,9.45
2022-12-25T16:11:43.770Z,9.34
2022-12-25T16:14:10.630Z,9.17
2022-12-25T16:16:37.833Z,9.09
2022-12-25T16:19:05.440Z,9.14
2022-12-25T16:21:39.294Z,8.92
2022-12-25T16:24:06.331Z,8.77
2022-12-25T16:26:33.526Z,8.69
2022-12-25T16:29:06.807Z,8.78
2022-12-25T16:31:34.209Z,8.69
2022-12-25T16:34:01.545Z,8.71
2022-12-25T16:36:28.643Z,8.64
2022-12-25T16:38:55.388Z,8.62
2022-12-25T16:41:22.723Z,8.38
2022-12-25T16:43:49.666Z,8.32
2022-12-25T16:46:19.238Z,8.41
2022-12-25T16:48:46.142Z,8.33
2022-12-25T16:51:19.725Z,8.46
2022-12-25T16:53:47.258Z,8.31
2022-12-25T16:56:17.150Z,8.06
2022-12-25T16:58:48.501Z,7.88
2022-12-25T17:01:17.438Z,7.52
2022-12-25T17:03:44.759Z,7.36
2022-12-25T17:06:20.573Z,7.17
2022-12-25T17:08:47.622Z,7.18
2022-12-25T17:11:15.455Z,7.02
2022-12-25T17:13:47.460Z,7.25
2022-12-25T17:16:15.260Z,6.98
2022-12-25T17:18:41.992Z,7.08
2022-12-25T17:21:09.416Z,6.76
2022-12-25T17:23:39.223Z,6.66
2022-12-25T17:26:06.294Z,6.49
2022-12-25T17:28:34.659Z,6.51
2022-12-25T17:31:06.813Z,6.36
2022-12-25T17:33:36.403Z,6.39
2022-12-25T17:36:04.709Z,6.27
2022-12-25T17:38:32.671Z,6.33
2022-12-25T17:41:01.220Z,6.52
2022-12-25T17:43:28.825Z,6.64
2022-12-25T17:45:55.525Z,6.60
2022-12-25T17:48:22.149Z,6.68
2022-12-25T17:50:48.797Z,6.73
2022-12-25T17:53:15.521Z,6.63
2022-12-25T17:55:42.399Z,6.47
2022-12-25T17:58:09.256Z,6.65
2022-12-25T18:00:36.664Z,6.52
2022-12-25T18:03:10.804Z,6.55
2022-12-25T18:05:38.516Z,6.56
2022-12-25T18:08:05.417Z,6.30
2022-12-25T18:10:42.031Z,6.15
2022-12-25T18:13:10.778Z,6.34
2022-12-25T18:15:39.800Z,6.42
2022-12-25T18:18:08.370Z,6.49
2022-12-25T18:20:39.807Z,6.45
2022-12-25T18:23:08.048Z,6.63
2022-12-25T18:25:34.823Z,6.35
2022-12-25T18:28:02.793Z,6.62
2022-12-25T18:30:29.723Z,6.72
2022-12-25T18:32:56.341Z,6.66
2022-12-25T18:35:23.427Z,6.77
2022-12-25T18:37:50.156Z,6.89
2022-12-25T18:40:17.133Z,6.76
2022-12-25T18:42:46.465Z,6.85
2022-12-25T18:45:14.763Z,6.96
2022-12-25T18:47:41.572Z,6.76
2022-12-25T18:50:09.772Z,6.45
2022-12-25T18:52:49.977Z,6.26
2022-12-25T18:55:17.565Z,6.48
2022-12-25T18:57:44.608Z,6.14
2022-12-25T19:00:11.702Z,6.00
2022-12-25T19:02:38.694Z,6.13
2022-12-25T19:05:06.026Z,6.41
2022-12-25T19:07:32.776Z,6.18
2022-12-25T19:09:59.664Z,6.21
2022-12-25T19:12:26.369Z,6.06
2022-12-25T19:14:53.025Z,6.29
2022-12-25T19:17:19.660Z,6.11
2022-12-25T19:19:46.545Z,5.94
2022-12-25T19:22:13.589Z,6.16
2022-12-25T19:24:40.343Z,6.22
2022-12-25T19:27:07.299Z,6.34
2022-12-25T19:29:34.480Z,6.48
2022-12-25T19:32:01.564Z,6.20
2022-12-25T19:34:28.341Z,6.24
2022-12-25T19:36:54.887Z,6.18
2022-12-25T19:39:24.790Z,6.05
2022-12-25T19:41:51.441Z,5.88
2022-12-25T19:44:19.992Z,6.05
2022-12-25T19:46:46.710Z,6.13
2022-12-25T19:49:14.053Z,6.10
2022-12-25T19:51:44.220Z,6.21
2022-12-25T19:54:15.938Z,6.21
2022-12-25T19:56:43.350Z,6.58
2022-12-25T19:59:11.885Z,6.83
2022-12-25T20:01:39.488Z,7.17
2022-12-25T20:04:08.785Z,7.79
2022-12-25T20:06:38.397Z,6.81
2022-12-25T20:09:14.977Z,7.18
2022-12-25T20:11:43.139Z,7.86
2022-12-25T20:14:13.554Z,6.95
2022-12-25T20:16:40.960Z,6.85
2022-12-25T20:19:08.188Z,7.02
2022-12-25T20:21:35.122Z,7.42
2022-12-25T20:24:01.989Z,7.02
2022-12-25T20:26:30.884Z,7.51
2022-12-25T20:28:58.592Z,7.69
2022-12-25T20:31:30.755Z,8.22
2022-12-25T20:33:59.671Z,7.71
2022-12-25T20:36:31.200Z,8.07
2022-12-25T20:39:03.655Z,8.19
2022-12-25T20:41:30.591Z,8.15
2022-12-25T20:43:58.064Z,8.39
2022-12-25T20:46:26.032Z,8.48
2022-12-25T20:48:53.733Z,8.53
2022-12-25T20:51:23.391Z,8.48
2022-12-25T20:53:51.254Z,7.87
2022-12-25T20:56:21.113Z,7.51
2022-12-25T20:58:52.133Z,7.45
2022-12-25T21:01:18.931Z,7.75
2022-12-25T21:03:45.942Z,7.68
2022-12-25T21:06:12.955Z,7.43
2022-12-25T21:08:41.491Z,7.14
2022-12-25T21:11:08.648Z,6.89
2022-12-25T21:13:41.773Z,6.82
2022-12-25T21:16:12.154Z,6.69
2022-12-25T21:18:39.301Z,6.89
2022-12-25T21:21:07.762Z,7.20
2022-12-25T21:23:36.613Z,7.18
2022-12-25T21:26:31.788Z,6.84
2022-12-25T21:29:00.848Z,6.88
2022-12-25T21:31:28.626Z,7.35
2022-12-25T21:33:57.700Z,7.06
2022-12-25T21:36:29.971Z,7.07
2022-12-25T21:39:02.529Z,7.18
2022-12-25T21:41:30.838Z,7.85
2022-12-25T21:43:57.816Z,7.62
2022-12-25T21:46:26.131Z,7.32
2022-12-25T21:48:53.538Z,7.19
2022-12-25T21:51:44.502Z,7.25
2022-12-25T21:54:12.491Z,7.39
2022-12-25T21:56:44.471Z,7.38
2022-12-25T21:59:15.490Z,7.07
2022-12-25T22:01:42.784Z,6.71
2022-12-25T22:04:11.164Z,6.67
2022-12-25T22:06:56.409Z,6.33
2022-12-25T22:09:23.229Z,6.35
2022-12-25T22:12:08.583Z,6.14
2022-12-25T22:14:54.360Z,6.13
2022-12-25T22:17:42.410Z,6.22
2022-12-25T22:20:15.762Z,6.15
2022-12-25T22:22:42.749Z,6.57
2022-12-25T22:25:10.863Z,6.63
2022-12-25T22:27:39.230Z,6.50
2022-12-25T22:30:07.974Z,6.20
2022-12-25T22:32:34.864Z,5.92
2022-12-25T22:35:01.829Z,6.54
2022-12-25T22:37:28.543Z,6.54
2022-12-25T22:39:55.247Z,5.97
2022-12-25T22:42:22.380Z,7.00
2022-12-25T22:44:49.220Z,7.26
2022-12-25T22:47:15.960Z,7.54
2022-12-25T22:49:43.044Z,5.97
2022-12-25T22:52:10.102Z,6.25
2022-12-25T22:54:37.243Z,5.93
2022-12-25T22:57:04.626Z,6.29
2022-12-25T22:59:32.927Z,6.62
2022-12-25T23:02:00.687Z,6.08
2022-12-25T23:04:28.532Z,5.56
2022-12-25T23:06:55.486Z,6.18
2022-12-25T23:09:29.468Z,6.13
2022-12-25T23:11:58.122Z,6.04
2022-12-25T23:14:41.753Z,5.81
2022-12-25T23:17:31.654Z,5.46
2022-12-25T23:20:18.725Z,5.64
2022-12-25T23:23:05.166Z,5.01
2022-12-25T23:25:52.464Z,4.94
2022-12-25T23:28:39.251Z,5.16
2022-12-25T23:31:06.161Z,5.26
2022-12-25T23:33:32.793Z,5.60
2022-12-25T23:35:59.329Z,5.48
2022-12-25T23:38:26.319Z,5.44
2022-12-25T23:40:53.018Z,5.85
2022-12-25T23:43:19.661Z,5.67
2022-12-25T23:45:46.289Z,5.31
2022-12-25T23:48:13.065Z,5.38
2022-12-25T23:50:39.780Z,5.79
2022-12-25T23:53:06.522Z,5.44
2022-12-25T23:55:33.733Z,5.37
2022-12-25T23:58:01.119Z,5.35
